Time;durP1;ratioP1;P1;durP2;ratioP2;P2;SDS_P1;SDS_P2;PMS_P1;PMS_P2;Temp;Humidity;BMP_temperature;BMP_pressure;BME280_temperature;BME280_humidity;BME280_pressure;Samples;Min_cycle;Max_cycle;Signal;HPM_P1;HPM_P2
2023/09/12 00:01:09;;;;;;;38.83;23.43;;;19.90;99.90;;;;;;5021293;28;20711;-68
2023/09/12 00:03:37;;;;;;;35.57;21.60;;;19.90;99.90;;;;;;5019841;28;20595;-66
2023/09/12 00:06:06;;;;;;;37.63;22.40;;;19.90;99.90;;;;;;5022080;28;20186;-67
2023/09/12 00:08:34;;;;;;;35.57;20.47;;;19.90;99.90;;;;;;5026799;28;20228;-67
2023/09/12 00:11:04;;;;;;;43.43;24.53;;;19.90;99.90;;;;;;5022730;28;20278;-66
2023/09/12 00:13:33;;;;;;;42.70;22.77;;;19.90;99.90;;;;;;5025443;28;20229;-66
2023/09/12 00:16:01;;;;;;;33.40;20.67;;;19.90;99.90;;;;;;5022128;28;20226;-66
2023/09/12 00:18:31;;;;;;;38.80;23.50;;;19.90;99.90;;;;;;5026153;28;20217;-66
2023/09/12 00:21:00;;;;;;;38.57;23.40;;;19.90;99.90;;;;;;5027627;28;20719;-67
2023/09/12 00:23:29;;;;;;;39.87;21.90;;;19.90;99.90;;;;;;5028220;28;20209;-66
2023/09/12 00:25:58;;;;;;;39.60;21.47;;;19.80;99.90;;;;;;5029916;28;20315;-66
2023/09/12 00:28:26;;;;;;;37.43;21.77;;;19.90;99.90;;;;;;5031356;28;20209;-66
2023/09/12 00:30:54;;;;;;;34.90;21.60;;;19.80;99.90;;;;;;5029919;28;20279;-66
2023/09/12 00:33:23;;;;;;;35.27;21.37;;;19.80;99.90;;;;;;5028509;28;20230;-66
2023/09/12 00:35:53;;;;;;;39.23;22.87;;;19.80;99.90;;;;;;5025952;28;20197;-67
2023/09/12 00:38:21;;;;;;;39.07;22.30;;;19.80;99.90;;;;;;5030761;28;20225;-67
2023/09/12 00:40:49;;;;;;;38.67;23.17;;;19.70;99.90;;;;;;5024898;28;20224;-67
2023/09/12 00:43:18;;;;;;;39.13;22.70;;;19.70;99.90;;;;;;5024596;28;20308;-66
2023/09/12 00:45:46;;;;;;;37.83;22.30;;;19.70;99.90;;;;;;5024996;28;20232;-66
2023/09/12 00:48:17;;;;;;;37.47;23.10;;;19.70;99.90;;;;;;5030344;28;20202;-66
2023/09/12 00:50:47;;;;;;;40.00;23.17;;;19.70;99.90;;;;;;5028544;28;20192;-67
2023/09/12 00:53:19;;;;;;;47.00;24.10;;;19.70;99.90;;;;;;5028699;28;20243;-66
2023/09/12 00:55:56;;;;;;;42.90;23.47;;;19.60;99.90;;;;;;5025327;28;20860;-67
2023/09/12 00:58:25;;;;;;;37.03;23.40;;;19.60;99.90;;;;;;5028825;28;20688;-67
2023/09/12 01:00:54;;;;;;;40.03;22.73;;;19.60;99.90;;;;;;5028500;28;20339;-66
2023/09/12 01:03:22;;;;;;;36.73;21.87;;;19.50;99.90;;;;;;5031234;28;20294;-66
2023/09/12 01:05:52;;;;;;;39.03;22.23;;;19.50;99.90;;;;;;5032932;28;20186;-67
2023/09/12 01:08:22;;;;;;;37.50;22.80;;;19.50;99.90;;;;;;5026994;28;20224;-67
2023/09/12 01:10:53;;;;;;;32.73;21.13;;;19.50;99.90;;;;;;5031343;28;20230;-67
2023/09/12 01:13:22;;;;;;;37.33;21.87;;;19.50;99.90;;;;;;5028969;28;20229;-67
2023/09/12 01:15:50;;;;;;;42.33;22.97;;;19.40;99.90;;;;;;5027684;28;20228;-66
2023/09/12 01:18:18;;;;;;;36.63;21.77;;;19.40;99.90;;;;;;5059437;28;20223;-66
2023/09/12 01:21:07;;;;;;;36.27;21.27;;;19.40;99.90;;;;;;5032334;28;20219;-67
2023/09/12 01:23:48;;;;;;;35.97;22.30;;;19.40;99.90;;;;;;5027880;28;20671;-66
2023/09/12 01:26:26;;;;;;;41.70;23.33;;;19.40;99.90;;;;;;5026351;28;20221;-67
2023/09/12 01:28:58;;;;;;;41.50;23.03;;;19.30;99.90;;;;;;5029813;28;20224;-67
2023/09/12 01:31:27;;;;;;;37.53;21.30;;;19.30;99.90;;;;;;5025690;28;20232;-67
2023/09/12 01:33:57;;;;;;;39.53;22.63;;;19.30;99.90;;;;;;5023046;28;20240;-67
2023/09/12 01:36:25;;;;;;;41.33;22.60;;;19.30;99.90;;;;;;5024937;28;20272;-66
2023/09/12 01:38:55;;;;;;;41.27;22.57;;;19.20;99.90;;;;;;5024535;28;20653;-66
2023/09/12 01:41:24;;;;;;;42.67;24.23;;;19.20;99.90;;;;;;5021854;28;20221;-67
2023/09/12 01:43:53;;;;;;;40.33;23.53;;;19.10;99.90;;;;;;5022424;28;20221;-67
2023/09/12 01:46:26;;;;;;;37.50;22.53;;;19.10;99.90;;;;;;5025112;28;20239;-67
2023/09/12 01:48:56;;;;;;;45.20;24.50;;;19.10;99.90;;;;;;5022649;28;20224;-67
2023/09/12 01:51:26;;;;;;;43.00;23.83;;;19.00;99.90;;;;;;5026099;28;20680;-66
2023/09/12 01:53:55;;;;;;;36.63;22.80;;;19.00;99.90;;;;;;5027149;28;20742;-67
2023/09/12 01:56:25;;;;;;;42.33;24.03;;;19.00;99.90;;;;;;5027204;28;20213;-67
2023/09/12 01:58:53;;;;;;;41.50;23.67;;;19.00;99.90;;;;;;5022417;28;20699;-66
2023/09/12 02:01:26;;;;;;;41.23;23.00;;;18.90;99.90;;;;;;5025738;28;20228;-67
2023/09/12 02:03:55;;;;;;;39.00;22.80;;;18.90;99.90;;;;;;5027970;28;20628;-67
2023/09/12 02:06:23;;;;;;;40.63;23.10;;;18.90;99.90;;;;;;5021849;28;20224;-67
2023/09/12 02:08:52;;;;;;;40.57;23.67;;;18.90;99.90;;;;;;5025217;28;20189;-67
2023/09/12 02:11:20;;;;;;;40.73;22.80;;;18.90;99.90;;;;;;5028301;28;20691;-67
2023/09/12 02:13:50;;;;;;;40.10;23.57;;;18.90;99.90;;;;;;5024838;28;20244;-67
2023/09/12 02:16:18;;;;;;;40.93;23.47;;;18.90;99.90;;;;;;5026962;28;20221;-67
2023/09/12 02:18:48;;;;;;;40.70;23.13;;;18.90;99.90;;;;;;5026060;28;20222;-67
2023/09/12 02:21:16;;;;;;;41.40;22.93;;;18.90;99.90;;;;;;5025665;28;20280;-66
2023/09/12 02:23:44;;;;;;;40.43;23.33;;;18.90;99.90;;;;;;5027914;28;20252;-67
2023/09/12 02:26:13;;;;;;;44.10;23.47;;;18.80;99.90;;;;;;5027729;28;20214;-67
2023/09/12 02:28:41;;;;;;;42.03;24.03;;;18.80;99.90;;;;;;5026178;28;20225;-67
2023/09/12 02:31:11;;;;;;;41.23;24.17;;;18.80;99.90;;;;;;5024816;28;20222;-67
2023/09/12 02:33:40;;;;;;;38.43;22.90;;;18.80;99.90;;;;;;5026752;28;20241;-67
2023/09/12 02:36:10;;;;;;;40.03;23.27;;;18.80;99.90;;;;;;5024480;28;20768;-66
2023/09/12 02:38:38;;;;;;;36.70;22.73;;;18.80;99.90;;;;;;5022142;28;20635;-67
2023/09/12 02:41:07;;;;;;;41.83;23.30;;;18.70;99.90;;;;;;5023505;28;20615;-67
2023/09/12 02:43:35;;;;;;;39.63;23.87;;;18.70;99.90;;;;;;5024923;28;20219;-67
2023/09/12 02:46:03;;;;;;;42.90;24.77;;;18.70;99.90;;;;;;5024016;28;20221;-67
2023/09/12 02:48:31;;;;;;;42.60;24.33;;;18.60;99.90;;;;;;5027300;28;20213;-66
2023/09/12 02:51:00;;;;;;;44.20;23.93;;;18.60;99.90;;;;;;5053625;28;20190;-67
2023/09/12 02:53:29;;;;;;;36.33;23.10;;;18.60;99.90;;;;;;5043213;28;20225;-67
2023/09/12 02:55:58;;;;;;;42.60;22.93;;;18.60;99.90;;;;;;5039515;28;20219;-66
2023/09/12 02:58:26;;;;;;;40.80;22.80;;;18.60;99.90;;;;;;5044060;28;20212;-66
2023/09/12 03:00:54;;;;;;;39.40;22.77;;;18.70;99.90;;;;;;5042507;28;20220;-66
2023/09/12 03:03:23;;;;;;;40.90;23.33;;;18.70;99.90;;;;;;5044197;28;20254;-66
2023/09/12 03:05:59;;;;;;;39.83;22.73;;;18.70;99.90;;;;;;5042155;28;20211;-67
2023/09/12 03:08:29;;;;;;;41.90;23.77;;;18.70;99.90;;;;;;5028979;28;20240;-67
2023/09/12 03:10:58;;;;;;;37.47;22.33;;;18.70;99.90;;;;;;5031568;28;20573;-67
2023/09/12 03:13:27;;;;;;;37.93;23.57;;;18.70;99.90;;;;;;5022789;28;20233;-67
2023/09/12 03:15:55;;;;;;;39.80;22.87;;;18.70;99.90;;;;;;5030204;28;20303;-66
2023/09/12 03:18:23;;;;;;;43.50;23.07;;;18.70;99.90;;;;;;5038721;28;20239;-66
2023/09/12 03:20:52;;;;;;;36.67;22.07;;;18.70;99.90;;;;;;5023711;28;20247;-67
2023/09/12 03:23:21;;;;;;;39.37;22.73;;;18.70;99.90;;;;;;5022993;28;20713;-67
2023/09/12 03:25:50;;;;;;;40.67;22.90;;;18.60;99.90;;;;;;5021755;28;20220;-67
2023/09/12 03:28:19;;;;;;;39.50;22.63;;;18.60;99.90;;;;;;5025170;28;20221;-66
2023/09/12 03:30:47;;;;;;;42.93;23.23;;;18.60;99.90;;;;;;5021028;28;20229;-67
2023/09/12 03:33:16;;;;;;;39.60;23.80;;;18.60;99.90;;;;;;5025889;28;20214;-66
2023/09/12 03:35:45;;;;;;;41.23;22.67;;;18.60;99.90;;;;;;5028206;28;20214;-67
2023/09/12 03:38:13;;;;;;;40.70;23.47;;;18.60;99.90;;;;;;5025122;28;20271;-67
2023/09/12 03:40:42;;;;;;;38.93;22.23;;;18.60;99.90;;;;;;5023594;28;20225;-67
2023/09/12 03:43:11;;;;;;;35.83;21.47;;;18.60;99.90;;;;;;5022976;28;20219;-67
2023/09/12 03:45:40;;;;;;;40.57;23.00;;;18.60;99.90;;;;;;5021177;28;20230;-67
2023/09/12 03:48:08;;;;;;;39.43;22.97;;;18.60;99.90;;;;;;5021633;28;20545;-66
2023/09/12 03:50:37;;;;;;;42.97;22.90;;;18.60;99.90;;;;;;5024925;28;20740;-67
2023/09/12 03:53:05;;;;;;;49.67;23.70;;;18.60;99.90;;;;;;5025219;28;20221;-67
2023/09/12 03:55:33;;;;;;;37.93;21.17;;;18.60;99.90;;;;;;5026052;28;20217;-67
2023/09/12 03:58:02;;;;;;;40.47;23.23;;;18.60;99.90;;;;;;5025784;28;20234;-68
2023/09/12 04:00:32;;;;;;;39.93;22.17;;;18.60;99.90;;;;;;5019679;28;20217;-66
2023/09/12 04:03:00;;;;;;;38.13;23.03;;;18.60;99.90;;;;;;5025142;28;20212;-67
2023/09/12 04:05:28;;;;;;;39.73;23.47;;;18.50;99.90;;;;;;5025226;28;20221;-67
2023/09/12 04:07:57;;;;;;;40.70;22.50;;;18.50;99.90;;;;;;5020878;28;20217;-67
2023/09/12 04:10:25;;;;;;;46.57;23.77;;;18.50;99.90;;;;;;5023705;28;20240;-67
2023/09/12 04:12:53;;;;;;;44.67;24.13;;;18.50;99.90;;;;;;5024493;28;20245;-66
2023/09/12 04:15:22;;;;;;;39.13;23.10;;;18.50;99.90;;;;;;5025072;28;20236;-66
2023/09/12 04:17:51;;;;;;;44.30;23.23;;;18.50;99.90;;;;;;5027058;28;20193;-67
2023/09/12 04:20:20;;;;;;;40.57;23.27;;;18.40;99.90;;;;;;5025113;28;20227;-67
2023/09/12 04:22:48;;;;;;;43.07;23.30;;;18.40;99.90;;;;;;5021732;28;20700;-66
2023/09/12 04:25:19;;;;;;;45.63;22.87;;;18.40;99.90;;;;;;5019582;28;20214;-66
2023/09/12 04:27:48;;;;;;;43.10;24.17;;;18.40;99.90;;;;;;5022546;28;20881;-67
2023/09/12 04:30:16;;;;;;;41.90;23.03;;;18.50;99.90;;;;;;5024351;28;20205;-66
2023/09/12 04:32:44;;;;;;;37.70;21.53;;;18.50;99.90;;;;;;5025185;28;21359;-67
2023/09/12 04:35:14;;;;;;;44.60;23.37;;;18.50;99.90;;;;;;5024010;28;20241;-67
2023/09/12 04:37:43;;;;;;;37.03;22.23;;;18.40;99.90;;;;;;5018098;28;20221;-67
2023/09/12 04:40:12;;;;;;;43.80;22.83;;;18.40;99.90;;;;;;5021585;28;20216;-67
2023/09/12 04:42:40;;;;;;;38.07;22.50;;;18.40;99.90;;;;;;5021852;28;20275;-66
2023/09/12 04:45:09;;;;;;;44.80;22.20;;;18.40;99.90;;;;;;5056912;28;20213;-66
2023/09/12 04:47:37;;;;;;;44.33;23.23;;;18.40;99.90;;;;;;5018481;28;20321;-67
2023/09/12 04:50:07;;;;;;;36.00;21.80;;;18.40;99.90;;;;;;5022869;28;20276;-67
2023/09/12 04:52:36;;;;;;;41.07;22.70;;;18.40;99.90;;;;;;5024214;28;20225;-67
2023/09/12 04:55:05;;;;;;;38.27;21.93;;;18.40;99.90;;;;;;5021157;28;20221;-67
2023/09/12 04:57:34;;;;;;;37.53;22.23;;;18.40;99.90;;;;;;5019011;28;20221;-66
2023/09/12 05:00:02;;;;;;;44.93;24.20;;;18.40;99.90;;;;;;5018526;28;20197;-65
2023/09/12 05:02:31;;;;;;;42.63;23.00;;;18.40;99.90;;;;;;5017755;28;20707;-66
2023/09/12 05:04:59;;;;;;;42.60;22.00;;;18.40;99.90;;;;;;5020861;28;20696;-66
2023/09/12 05:07:27;;;;;;;46.10;24.40;;;18.40;99.90;;;;;;5024791;28;20221;-66
2023/09/12 05:09:57;;;;;;;38.50;22.30;;;18.40;99.90;;;;;;5025960;28;20217;-67
2023/09/12 05:12:25;;;;;;;48.13;23.63;;;18.30;99.90;;;;;;5026215;28;20220;-65
2023/09/12 05:14:53;;;;;;;48.17;24.47;;;18.30;99.90;;;;;;5029405;28;20624;-67
2023/09/12 05:17:21;;;;;;;39.03;22.53;;;18.30;99.90;;;;;;5026769;28;20214;-67
2023/09/12 05:19:50;;;;;;;36.97;20.87;;;18.20;99.90;;;;;;5024374;28;20317;-66
2023/09/12 05:22:18;;;;;;;46.50;23.13;;;18.20;99.90;;;;;;5027900;28;20228;-66
2023/09/12 05:24:49;;;;;;;43.13;22.27;;;18.20;99.90;;;;;;5024499;28;20243;-66
2023/09/12 05:27:19;;;;;;;44.80;24.53;;;18.20;99.90;;;;;;5024445;28;20186;-66
2023/09/12 05:29:48;;;;;;;43.40;23.27;;;18.20;99.90;;;;;;5025159;28;20199;-67
2023/09/12 05:32:17;;;;;;;38.40;22.77;;;18.20;99.90;;;;;;5029013;28;20267;-67
2023/09/12 05:34:49;;;;;;;44.67;23.77;;;18.20;99.90;;;;;;5026558;28;20244;-67
2023/09/12 05:37:18;;;;;;;47.13;23.77;;;18.10;99.90;;;;;;5022575;28;20676;-66
2023/09/12 05:39:50;;;;;;;39.43;22.30;;;18.10;99.90;;;;;;5021659;28;20229;-67
2023/09/12 05:42:20;;;;;;;45.13;23.80;;;18.10;99.90;;;;;;5023711;28;20197;-66
2023/09/12 05:44:50;;;;;;;55.73;26.57;;;18.10;99.90;;;;;;5024002;28;20296;-67
2023/09/12 05:47:19;;;;;;;60.70;26.77;;;18.10;99.90;;;;;;5024352;28;20213;-66
2023/09/12 05:49:47;;;;;;;50.80;25.33;;;18.10;99.90;;;;;;5023528;28;20217;-66
2023/09/12 05:52:15;;;;;;;55.83;27.07;;;18.20;99.90;;;;;;5021257;28;20222;-66
2023/09/12 05:54:44;;;;;;;50.73;24.97;;;18.20;99.90;;;;;;5024824;28;20218;-66
2023/09/12 05:57:12;;;;;;;54.43;27.03;;;18.20;99.90;;;;;;5023814;28;20214;-65
2023/09/12 05:59:42;;;;;;;60.60;27.87;;;18.30;99.90;;;;;;5023107;28;20289;-66
2023/09/12 06:02:11;;;;;;;64.90;28.53;;;18.30;99.90;;;;;;5022351;28;20909;-66
2023/09/12 06:04:39;;;;;;;66.67;27.20;;;18.30;99.90;;;;;;5022511;28;20226;-66
2023/09/12 06:07:08;;;;;;;82.63;31.77;;;18.30;99.90;;;;;;5024369;28;20316;-66
2023/09/12 06:09:36;;;;;;;79.70;31.97;;;18.40;99.90;;;;;;5030345;28;20276;-66
2023/09/12 06:12:06;;;;;;;86.43;34.33;;;18.40;99.90;;;;;;5017806;28;20287;-66
2023/09/12 06:14:34;;;;;;;102.00;36.90;;;18.40;99.90;;;;;;5023340;28;20226;-66
2023/09/12 06:17:04;;;;;;;102.17;39.83;;;18.40;99.90;;;;;;5025550;28;20228;-66
2023/09/12 06:19:32;;;;;;;95.83;36.70;;;18.50;99.90;;;;;;5023735;28;20224;-66
2023/09/12 06:22:00;;;;;;;95.10;37.67;;;18.50;99.90;;;;;;5025402;28;20352;-66
2023/09/12 06:24:29;;;;;;;94.30;38.37;;;18.50;99.90;;;;;;5024976;28;20268;-66
2023/09/12 06:26:57;;;;;;;95.97;40.27;;;18.60;99.90;;;;;;5026081;28;20209;-66
2023/09/12 06:29:27;;;;;;;99.33;41.23;;;18.50;99.90;;;;;;5027936;28;20217;-66
2023/09/12 06:31:57;;;;;;;90.10;38.27;;;18.60;99.90;;;;;;5022817;28;20227;-66
2023/09/12 06:34:29;;;;;;;86.17;37.77;;;18.60;99.90;;;;;;5024347;28;20225;-66
2023/09/12 06:36:57;;;;;;;75.57;33.87;;;18.60;99.90;;;;;;5027857;28;20234;-67
2023/09/12 06:39:25;;;;;;;89.83;38.03;;;18.60;99.90;;;;;;5022784;28;20601;-66
2023/09/12 06:41:54;;;;;;;84.57;37.17;;;18.70;99.90;;;;;;5025705;28;20203;-66
2023/09/12 06:44:25;;;;;;;88.33;37.97;;;18.70;99.90;;;;;;5024675;28;20224;-66
2023/09/12 06:46:54;;;;;;;104.30;39.17;;;18.70;99.90;;;;;;5024535;28;20217;-66
2023/09/12 06:49:22;;;;;;;80.53;36.47;;;18.70;99.90;;;;;;5023556;28;20748;-66
2023/09/12 06:51:52;;;;;;;90.10;37.97;;;18.70;99.90;;;;;;5026191;28;20687;-66
2023/09/12 06:54:20;;;;;;;93.30;38.70;;;18.70;99.90;;;;;;5026834;28;20201;-66
2023/09/12 06:56:49;;;;;;;90.43;38.63;;;18.80;99.90;;;;;;5028284;28;20261;-67
2023/09/12 06:59:18;;;;;;;91.10;39.67;;;18.80;99.90;;;;;;5021448;28;20213;-67
2023/09/12 07:01:46;;;;;;;81.43;36.60;;;18.80;99.90;;;;;;5027855;28;20221;-67
2023/09/12 07:04:16;;;;;;;95.10;39.80;;;18.80;99.90;;;;;;5025274;28;20244;-67
2023/09/12 07:06:44;;;;;;;93.37;39.50;;;18.80;99.90;;;;;;5023551;28;20221;-66
2023/09/12 07:09:14;;;;;;;93.70;39.17;;;18.80;99.90;;;;;;5024695;28;20731;-67
2023/09/12 07:11:44;;;;;;;84.20;37.50;;;18.80;99.90;;;;;;5021469;28;20240;-67
2023/09/12 07:14:12;;;;;;;91.57;38.03;;;18.80;99.90;;;;;;5026899;28;20237;-67
2023/09/12 07:16:40;;;;;;;83.20;37.80;;;18.90;99.90;;;;;;5017381;28;20685;-67
2023/09/12 07:19:09;;;;;;;83.97;36.33;;;18.90;99.90;;;;;;5023448;28;20228;-67
2023/09/12 07:21:38;;;;;;;80.60;35.13;;;18.90;99.90;;;;;;5024526;28;20229;-66
2023/09/12 07:24:07;;;;;;;73.53;34.07;;;18.90;99.90;;;;;;5017031;28;20195;-66
2023/09/12 07:26:39;;;;;;;83.80;36.90;;;18.90;99.90;;;;;;5029523;28;20194;-67
2023/09/12 07:29:07;;;;;;;76.60;35.83;;;18.90;99.90;;;;;;5024178;28;20218;-67
2023/09/12 07:31:36;;;;;;;79.27;35.03;;;19.00;99.90;;;;;;5028901;28;20723;-67
2023/09/12 07:34:04;;;;;;;85.20;37.20;;;18.90;99.90;;;;;;5023779;28;20217;-67
2023/09/12 07:36:36;;;;;;;87.03;37.40;;;18.90;99.90;;;;;;5026544;28;20312;-67
2023/09/12 07:39:05;;;;;;;73.90;34.83;;;18.80;99.90;;;;;;5024264;28;20594;-66
2023/09/12 07:41:34;;;;;;;81.17;34.43;;;18.80;99.90;;;;;;5023013;28;20288;-67
2023/09/12 07:44:04;;;;;;;79.23;36.33;;;18.90;99.90;;;;;;5025083;28;20301;-66
2023/09/12 07:46:33;;;;;;;86.50;34.93;;;19.00;99.90;;;;;;5026958;28;20221;-67
2023/09/12 07:49:01;;;;;;;77.00;35.00;;;19.00;99.90;;;;;;5020233;28;20695;-67
2023/09/12 07:51:30;;;;;;;84.17;37.27;;;19.20;99.90;;;;;;5023512;28;20222;-66
2023/09/12 07:53:58;;;;;;;87.67;38.20;;;19.30;99.90;;;;;;5023628;28;20283;-67
2023/09/12 07:56:26;;;;;;;87.27;37.03;;;19.30;99.90;;;;;;5018052;28;20225;-67
2023/09/12 07:58:55;;;;;;;85.23;35.77;;;19.40;99.90;;;;;;5023086;28;20252;-67
2023/09/12 08:01:25;;;;;;;80.57;36.23;;;19.40;99.90;;;;;;5023709;28;20224;-67
2023/09/12 08:03:53;;;;;;;81.33;35.87;;;19.30;99.90;;;;;;5023771;28;20684;-67
2023/09/12 08:06:23;;;;;;;78.47;35.33;;;19.30;99.90;;;;;;5024307;28;20256;-66
2023/09/12 08:08:52;;;;;;;88.37;37.80;;;19.40;99.90;;;;;;5025167;28;20181;-67
2023/09/12 08:11:20;;;;;;;81.73;35.30;;;19.40;99.90;;;;;;5021467;28;20561;-67
2023/09/12 08:13:50;;;;;;;80.40;35.50;;;19.60;99.90;;;;;;5026372;28;20233;-68
2023/09/12 08:16:18;;;;;;;86.37;38.13;;;19.80;99.90;;;;;;5024020;28;20232;-67
2023/09/12 08:18:48;;;;;;;77.87;35.07;;;19.80;99.90;;;;;;5023081;28;20228;-67
2023/09/12 08:21:16;;;;;;;78.10;34.67;;;19.80;99.90;;;;;;5020789;28;20189;-66
2023/09/12 08:23:45;;;;;;;69.50;32.60;;;20.00;99.90;;;;;;5022206;28;20300;-67
2023/09/12 08:26:13;;;;;;;69.93;33.03;;;20.20;99.90;;;;;;5024629;28;20221;-67
2023/09/12 08:28:41;;;;;;;68.40;32.77;;;20.30;99.90;;;;;;5020846;28;20221;-67
2023/09/12 08:31:10;;;;;;;70.57;32.90;;;20.50;99.90;;;;;;5022872;28;20580;-66
2023/09/12 08:33:39;;;;;;;68.60;33.70;;;20.60;99.90;;;;;;5024881;28;20232;-66
2023/09/12 08:36:08;;;;;;;67.00;33.07;;;20.70;99.90;;;;;;5025295;28;20299;-66
2023/09/12 08:38:37;;;;;;;71.47;31.57;;;21.00;99.90;;;;;;5024296;28;20720;-67
2023/09/12 08:41:07;;;;;;;63.17;31.27;;;21.10;99.90;;;;;;5029811;28;20225;-67
2023/09/12 08:43:35;;;;;;;61.77;30.70;;;21.20;99.90;;;;;;5021902;28;20218;-67
2023/09/12 08:46:04;;;;;;;55.67;28.93;;;21.40;99.90;;;;;;5027385;28;20770;-66
2023/09/12 08:48:33;;;;;;;62.33;29.47;;;21.60;99.90;;;;;;5027465;28;20222;-66
2023/09/12 08:51:03;;;;;;;60.90;30.57;;;21.70;99.90;;;;;;5023905;28;20203;-64
2023/09/12 08:53:33;;;;;;;58.57;30.17;;;21.70;99.90;;;;;;5024998;28;20196;-66
2023/09/12 08:56:03;;;;;;;58.67;30.20;;;21.60;99.90;;;;;;5023817;28;20227;-67
2023/09/12 08:58:33;;;;;;;56.37;29.00;;;21.60;99.90;;;;;;5026746;28;20589;-67
2023/09/12 09:01:03;;;;;;;55.30;26.37;;;21.90;99.90;;;;;;5021979;28;20703;-67
2023/09/12 09:03:32;;;;;;;44.70;24.23;;;21.90;99.90;;;;;;5023543;28;20231;-66
2023/09/12 09:06:02;;;;;;;47.07;24.53;;;21.90;99.90;;;;;;5024260;28;20200;-67
2023/09/12 09:08:33;;;;;;;44.23;23.03;;;22.00;99.90;;;;;;5044997;28;20670;-67
2023/09/12 09:11:03;;;;;;;43.87;23.40;;;22.00;99.90;;;;;;5047560;28;20226;-66
2023/09/12 09:13:31;;;;;;;39.63;22.13;;;22.20;99.90;;;;;;5047309;28;20236;-67
2023/09/12 09:16:18;;;;;;;41.40;22.40;;;22.20;99.90;;;;;;5047639;28;20229;-67
2023/09/12 09:18:54;;;;;;;37.93;21.67;;;22.10;99.90;;;;;;5044072;28;20616;-66
2023/09/12 09:21:25;;;;;;;35.30;19.87;;;22.40;99.90;;;;;;5043820;28;20709;-67
2023/09/12 09:23:55;;;;;;;32.30;18.13;;;22.50;99.90;;;;;;5046194;28;20226;-67
2023/09/12 09:26:24;;;;;;;30.43;16.23;;;22.50;99.90;;;;;;5044361;28;20643;-67
2023/09/12 09:29:06;;;;;;;22.93;15.43;;;22.50;99.90;;;;;;5045950;28;20554;-67
2023/09/12 09:31:37;;;;;;;31.27;16.33;;;22.60;99.90;;;;;;5044859;28;20225;-66
2023/09/12 09:34:12;;;;;;;27.97;16.87;;;22.60;99.90;;;;;;5044254;28;20228;-66
2023/09/12 09:36:44;;;;;;;32.50;17.97;;;22.80;99.90;;;;;;5049357;28;20925;-66
2023/09/12 09:39:14;;;;;;;34.17;19.30;;;22.70;99.90;;;;;;5046267;28;20582;-66
2023/09/12 09:41:42;;;;;;;40.37;23.20;;;22.70;99.90;;;;;;5050143;28;20207;-67
2023/09/12 09:44:11;;;;;;;41.50;22.77;;;22.50;99.90;;;;;;5046306;28;20223;-67
2023/09/12 09:46:39;;;;;;;39.60;21.97;;;22.50;99.90;;;;;;5045036;28;20225;-66
2023/09/12 09:49:11;;;;;;;40.33;23.47;;;22.60;99.90;;;;;;5045964;28;20311;-67
2023/09/12 09:51:43;;;;;;;41.17;23.77;;;22.80;99.90;;;;;;5044600;28;20230;-67
2023/09/12 09:54:13;;;;;;;35.10;21.63;;;23.10;99.90;;;;;;5043924;28;20204;-66
2023/09/12 09:56:49;;;;;;;42.53;22.03;;;23.30;99.90;;;;;;5044782;28;20194;-67
2023/09/12 09:59:19;;;;;;;36.30;20.17;;;23.40;99.90;;;;;;5044029;28;20212;-67
2023/09/12 10:01:49;;;;;;;38.77;19.63;;;23.70;99.90;;;;;;5042682;28;20538;-66
2023/09/12 10:04:18;;;;;;;33.10;18.60;;;24.00;99.90;;;;;;5046380;28;20646;-66
2023/09/12 10:06:48;;;;;;;33.47;19.77;;;24.20;99.90;;;;;;5045145;28;20734;-67
2023/09/12 10:09:19;;;;;;;33.37;19.53;;;24.20;99.90;;;;;;5046533;28;20711;-66
2023/09/12 10:11:49;;;;;;;34.20;19.20;;;24.40;99.90;;;;;;5046725;28;20645;-67
2023/09/12 10:14:20;;;;;;;32.10;19.73;;;24.60;99.90;;;;;;5046756;28;20224;-68
2023/09/12 10:16:51;;;;;;;33.63;20.10;;;24.70;99.90;;;;;;5043052;28;20221;-67
2023/09/12 10:19:23;;;;;;;33.63;19.10;;;24.60;99.90;;;;;;5044519;28;20245;-67
2023/09/12 10:22:01;;;;;;;31.20;18.03;;;24.80;99.90;;;;;;5043393;28;20235;-67
2023/09/12 10:24:33;;;;;;;27.10;16.70;;;24.90;99.90;;;;;;5041765;28;20227;-67
2023/09/12 10:27:04;;;;;;;25.23;15.98;;;25.00;99.90;;;;;;5045938;28;20272;-66
2023/09/12 10:29:33;;;;;;;23.30;15.07;;;25.10;99.90;;;;;;5047012;28;20194;-68
2023/09/12 10:32:01;;;;;;;19.52;12.98;;;25.00;99.90;;;;;;5041877;28;20255;-67
2023/09/12 10:34:32;;;;;;;24.73;13.10;;;25.20;99.90;;;;;;5043517;28;20233;-68
2023/09/12 10:37:02;;;;;;;18.55;13.07;;;25.40;99.90;;;;;;5047936;28;20224;-67
2023/09/12 10:39:33;;;;;;;20.92;13.00;;;25.30;99.90;;;;;;5040831;28;20309;-67
2023/09/12 10:42:08;;;;;;;16.02;11.15;;;25.10;99.90;;;;;;5047195;28;20197;-68
2023/09/12 10:44:36;;;;;;;13.38;9.68;;;25.10;99.90;;;;;;5042888;28;20248;-67
2023/09/12 10:47:05;;;;;;;16.05;10.93;;;25.20;99.90;;;;;;5046546;28;20230;-67
2023/09/12 10:49:34;;;;;;;14.20;10.48;;;25.30;99.90;;;;;;5038718;28;20226;-67
2023/09/12 10:52:04;;;;;;;16.40;11.40;;;25.30;99.90;;;;;;5045982;28;20232;-67
2023/09/12 10:54:41;;;;;;;15.35;10.77;;;25.60;99.90;;;;;;5044644;28;20247;-67
2023/09/12 10:57:13;;;;;;;17.48;12.30;;;25.80;99.90;;;;;;5043203;28;20255;-67
2023/09/12 11:00:12;;;;;;;17.67;11.70;;;25.90;99.90;;;;;;5044399;28;20265;-67
2023/09/12 11:02:42;;;;;;;17.13;12.50;;;26.10;99.90;;;;;;5041175;28;20717;-67
2023/09/12 11:05:38;;;;;;;19.95;12.25;;;26.10;99.90;;;;;;5041059;28;20242;-67
2023/09/12 11:08:06;;;;;;;16.25;12.63;;;26.20;99.90;;;;;;5045132;28;20622;-67
2023/09/12 11:10:36;;;;;;;16.60;12.27;;;26.30;99.90;;;;;;5042285;28;20225;-67
2023/09/12 11:13:05;;;;;;;17.75;12.30;;;26.30;99.90;;;;;;5044223;28;20317;-67
2023/09/12 11:15:34;;;;;;;18.90;13.30;;;26.50;99.90;;;;;;5042535;28;20299;-68
2023/09/12 11:18:04;;;;;;;17.17;12.25;;;26.50;99.90;;;;;;5044089;28;20200;-66
2023/09/12 11:21:03;;;;;;;17.85;11.88;;;26.50;99.90;;;;;;5040429;28;20235;-67
2023/09/12 11:23:34;;;;;;;14.95;11.05;;;26.30;99.90;;;;;;5030684;28;20254;-67
2023/09/12 11:26:11;;;;;;;15.98;11.02;;;26.40;99.90;;;;;;5043169;28;20568;-67
2023/09/12 11:28:42;;;;;;;12.13;10.05;;;26.00;99.90;;;;;;5041283;28;20227;-66
2023/09/12 11:31:11;;;;;;;13.10;10.13;;;25.90;99.90;;;;;;5045714;28;20370;-67
2023/09/12 11:33:41;;;;;;;14.73;9.90;;;26.00;99.90;;;;;;5048296;28;20223;-67
2023/09/12 11:36:15;;;;;;;15.40;9.13;;;26.30;99.90;;;;;;5045164;28;20200;-67
2023/09/12 11:38:43;;;;;;;14.27;10.18;;;26.50;99.90;;;;;;5046305;28;20190;-67
2023/09/12 11:41:13;;;;;;;42.92;11.75;;;26.60;99.90;;;;;;5044869;28;20682;-67
2023/09/12 11:43:41;;;;;;;18.63;9.63;;;26.70;99.90;;;;;;5043528;28;20230;-67
2023/09/12 11:46:10;;;;;;;12.73;8.10;;;26.90;99.90;;;;;;5044085;28;20241;-66
2023/09/12 11:48:39;;;;;;;8.35;7.05;;;27.10;99.90;;;;;;5047002;28;20224;-67
2023/09/12 11:51:09;;;;;;;11.18;8.15;;;27.10;99.90;;;;;;5043860;28;20638;-66
2023/09/12 11:53:37;;;;;;;11.82;9.30;;;27.10;99.90;;;;;;5072153;28;20637;-67
2023/09/12 11:56:06;;;;;;;10.55;8.43;;;26.90;99.90;;;;;;5040031;28;20350;-67
2023/09/12 11:58:36;;;;;;;8.90;7.97;;;27.00;99.90;;;;;;5041990;28;20222;-67
2023/09/12 12:01:06;;;;;;;9.65;8.50;;;26.90;99.90;;;;;;5042635;28;20318;-67
2023/09/12 12:03:34;;;;;;;12.50;9.02;;;27.30;99.90;;;;;;5041946;28;20229;-66
2023/09/12 12:06:04;;;;;;;12.80;9.35;;;27.30;99.90;;;;;;5042851;28;20220;-66
2023/09/12 12:08:33;;;;;;;14.45;8.48;;;27.40;99.90;;;;;;5043322;28;20194;-66
2023/09/12 12:11:01;;;;;;;10.77;7.80;;;27.50;99.90;;;;;;5043438;28;20231;-67
2023/09/12 12:13:30;;;;;;;10.52;9.20;;;27.70;99.90;;;;;;5041313;28;20242;-67
2023/09/12 12:16:00;;;;;;;9.70;6.85;;;27.70;99.90;;;;;;5039748;28;20544;-66
2023/09/12 12:18:28;;;;;;;10.57;7.35;;;27.40;99.90;;;;;;5048724;28;20248;-67
2023/09/12 12:20:57;;;;;;;10.88;7.55;;;27.30;99.90;;;;;;5046398;28;20213;-67
2023/09/12 12:23:26;;;;;;;12.55;7.32;;;27.30;99.90;;;;;;5039219;28;20228;-67
2023/09/12 12:25:54;;;;;;;8.10;6.25;;;27.40;99.90;;;;;;5042994;28;20234;-67
2023/09/12 12:28:23;;;;;;;8.80;6.55;;;27.20;99.90;;;;;;5041630;28;20265;-67
2023/09/12 12:30:54;;;;;;;7.35;5.97;;;27.20;99.90;;;;;;5044423;28;20590;-66
2023/09/12 12:33:24;;;;;;;8.68;6.82;;;27.00;99.90;;;;;;5039009;28;20244;-67
2023/09/12 12:36:12;;;;;;;6.40;5.45;;;27.00;99.90;;;;;;5043645;28;20249;-66
2023/09/12 12:38:43;;;;;;;5.47;3.70;;;26.80;99.90;;;;;;5041926;28;20198;-67
2023/09/12 12:41:25;;;;;;;4.28;3.78;;;27.00;99.90;;;;;;5043816;28;20577;-66